sensor_id;sensor_type;location;lat;lon;timestamp;P1;durP1;ratioP1;P2;durP2;ratioP2
29730;SDS011;16639;51.488;0.152;2023-02-28T00:01:26;10.07;;;4.13;;
29730;SDS011;16639;51.488;0.152;2023-02-28T00:03:54;11.13;;;4.53;;
29730;SDS011;16639;51.488;0.152;2023-02-28T00:06:22;12.40;;;4.72;;
29730;SDS011;16639;51.488;0.152;2023-02-28T00:08:50;15.70;;;4.72;;
29730;SDS011;16639;51.488;0.152;2023-02-28T00:11:18;13.98;;;4.07;;
29730;SDS011;16639;51.488;0.152;2023-02-28T00:13:46;11.75;;;3.80;;
29730;SDS011;16639;51.488;0.152;2023-02-28T00:16:15;13.77;;;4.10;;
29730;SDS011;16639;51.488;0.152;2023-02-28T00:18:47;13.68;;;4.10;;
29730;SDS011;16639;51.488;0.152;2023-02-28T00:21:16;12.82;;;3.83;;
29730;SDS011;16639;51.488;0.152;2023-02-28T00:23:44;23.65;;;6.28;;
29730;SDS011;16639;51.488;0.152;2023-02-28T00:26:11;11.75;;;3.90;;
29730;SDS011;16639;51.488;0.152;2023-02-28T00:28:39;9.68;;;4.15;;
29730;SDS011;16639;51.488;0.152;2023-02-28T00:31:06;11.73;;;5.53;;
29730;SDS011;16639;51.488;0.152;2023-02-28T00:33:34;11.68;;;4.43;;
29730;SDS011;16639;51.488;0.152;2023-02-28T00:36:03;10.90;;;4.40;;
29730;SDS011;16639;51.488;0.152;2023-02-28T00:38:32;12.55;;;5.82;;
29730;SDS011;16639;51.488;0.152;2023-02-28T00:41:00;9.32;;;4.45;;
29730;SDS011;16639;51.488;0.152;2023-02-28T00:43:32;13.10;;;7.03;;
29730;SDS011;16639;51.488;0.152;2023-02-28T00:46:00;12.23;;;5.60;;
29730;SDS011;16639;51.488;0.152;2023-02-28T00:48:28;14.38;;;5.90;;
29730;SDS011;16639;51.488;0.152;2023-02-28T00:50:55;13.98;;;5.93;;
29730;SDS011;16639;51.488;0.152;2023-02-28T00:53:23;14.88;;;5.75;;
29730;SDS011;16639;51.488;0.152;2023-02-28T00:55:50;13.98;;;6.88;;
29730;SDS011;16639;51.488;0.152;2023-02-28T00:58:18;15.88;;;6.13;;
29730;SDS011;16639;51.488;0.152;2023-02-28T01:00:45;21.25;;;5.75;;
29730;SDS011;16639;51.488;0.152;2023-02-28T01:03:16;13.60;;;6.38;;
29730;SDS011;16639;51.488;0.152;2023-02-28T01:05:45;10.55;;;5.78;;
29730;SDS011;16639;51.488;0.152;2023-02-28T01:08:13;19.98;;;5.88;;
29730;SDS011;16639;51.488;0.152;2023-02-28T01:10:41;20.55;;;6.05;;
29730;SDS011;16639;51.488;0.152;2023-02-28T01:13:08;13.75;;;5.20;;
29730;SDS011;16639;51.488;0.152;2023-02-28T01:15:36;16.98;;;5.15;;
29730;SDS011;16639;51.488;0.152;2023-02-28T01:18:04;15.88;;;7.22;;
29730;SDS011;16639;51.488;0.152;2023-02-28T01:20:32;11.30;;;5.15;;
29730;SDS011;16639;51.488;0.152;2023-02-28T01:22:59;17.10;;;5.75;;
29730;SDS011;16639;51.488;0.152;2023-02-28T01:25:26;22.90;;;6.22;;
29730;SDS011;16639;51.488;0.152;2023-02-28T01:27:53;11.43;;;5.03;;
29730;SDS011;16639;51.488;0.152;2023-02-28T01:30:21;22.15;;;5.65;;
29730;SDS011;16639;51.488;0.152;2023-02-28T01:32:48;12.88;;;5.60;;
29730;SDS011;16639;51.488;0.152;2023-02-28T01:35:17;22.63;;;5.35;;
29730;SDS011;16639;51.488;0.152;2023-02-28T01:37:45;30.83;;;9.82;;
29730;SDS011;16639;51.488;0.152;2023-02-28T01:40:12;45.45;;;7.13;;
29730;SDS011;16639;51.488;0.152;2023-02-28T01:42:40;15.18;;;5.70;;
29730;SDS011;16639;51.488;0.152;2023-02-28T01:45:27;18.77;;;5.93;;
29730;SDS011;16639;51.488;0.152;2023-02-28T01:47:59;10.57;;;4.53;;
29730;SDS011;16639;51.488;0.152;2023-02-28T01:53:04;19.40;;;5.82;;
29730;SDS011;16639;51.488;0.152;2023-02-28T01:55:36;12.95;;;4.80;;
29730;SDS011;16639;51.488;0.152;2023-02-28T01:58:04;19.75;;;6.68;;
29730;SDS011;16639;51.488;0.152;2023-02-28T02:00:34;12.45;;;5.10;;
29730;SDS011;16639;51.488;0.152;2023-02-28T02:03:11;12.27;;;5.22;;
29730;SDS011;16639;51.488;0.152;2023-02-28T02:05:43;23.13;;;7.50;;
29730;SDS011;16639;51.488;0.152;2023-02-28T02:08:19;10.68;;;5.22;;
29730;SDS011;16639;51.488;0.152;2023-02-28T02:11:00;13.90;;;5.55;;
29730;SDS011;16639;51.488;0.152;2023-02-28T02:27:06;13.82;;;4.95;;
29730;SDS011;16639;51.488;0.152;2023-02-28T02:35:13;8.27;;;4.90;;
29730;SDS011;16639;51.488;0.152;2023-02-28T02:37:52;10.38;;;4.72;;
29730;SDS011;16639;51.488;0.152;2023-02-28T02:40:36;8.15;;;4.80;;
29730;SDS011;16639;51.488;0.152;2023-02-28T02:46:22;19.48;;;5.18;;
29730;SDS011;16639;51.488;0.152;2023-02-28T02:48:55;16.50;;;5.80;;
29730;SDS011;16639;51.488;0.152;2023-02-28T02:51:26;14.75;;;7.30;;
29730;SDS011;16639;51.488;0.152;2023-02-28T02:54:00;19.65;;;7.10;;
29730;SDS011;16639;51.488;0.152;2023-02-28T02:56:38;20.83;;;7.47;;
29730;SDS011;16639;51.488;0.152;2023-02-28T02:59:09;19.52;;;7.50;;
29730;SDS011;16639;51.488;0.152;2023-02-28T03:01:39;19.70;;;7.38;;
29730;SDS011;16639;51.488;0.152;2023-02-28T03:04:10;14.20;;;8.10;;
29730;SDS011;16639;51.488;0.152;2023-02-28T03:06:40;19.75;;;8.15;;
29730;SDS011;16639;51.488;0.152;2023-02-28T03:09:08;17.65;;;7.82;;
29730;SDS011;16639;51.488;0.152;2023-02-28T03:11:35;32.33;;;11.90;;
29730;SDS011;16639;51.488;0.152;2023-02-28T03:22:46;18.10;;;6.90;;
29730;SDS011;16639;51.488;0.152;2023-02-28T03:25:20;20.38;;;7.43;;
29730;SDS011;16639;51.488;0.152;2023-02-28T03:27:54;12.30;;;6.50;;
29730;SDS011;16639;51.488;0.152;2023-02-28T03:30:59;18.08;;;6.57;;
29730;SDS011;16639;51.488;0.152;2023-02-28T03:33:38;10.57;;;6.43;;
29730;SDS011;16639;51.488;0.152;2023-02-28T03:36:14;23.50;;;7.75;;
29730;SDS011;16639;51.488;0.152;2023-02-28T03:38:55;23.00;;;7.05;;
29730;SDS011;16639;51.488;0.152;2023-02-28T03:41:36;22.17;;;7.20;;
29730;SDS011;16639;51.488;0.152;2023-02-28T03:44:14;21.20;;;8.93;;
29730;SDS011;16639;51.488;0.152;2023-02-28T03:47:23;13.95;;;7.47;;
29730;SDS011;16639;51.488;0.152;2023-02-28T03:49:59;15.15;;;7.57;;
29730;SDS011;16639;51.488;0.152;2023-02-28T03:52:56;20.55;;;7.53;;
29730;SDS011;16639;51.488;0.152;2023-02-28T03:55:34;18.00;;;6.50;;
29730;SDS011;16639;51.488;0.152;2023-02-28T03:58:13;16.63;;;8.10;;
29730;SDS011;16639;51.488;0.152;2023-02-28T04:00:46;20.67;;;6.95;;
29730;SDS011;16639;51.488;0.152;2023-02-28T04:03:17;24.50;;;8.43;;
29730;SDS011;16639;51.488;0.152;2023-02-28T04:05:54;17.27;;;6.97;;
29730;SDS011;16639;51.488;0.152;2023-02-28T04:08:23;23.17;;;6.22;;
29730;SDS011;16639;51.488;0.152;2023-02-28T04:13:49;15.90;;;5.75;;
29730;SDS011;16639;51.488;0.152;2023-02-28T04:16:16;20.65;;;6.50;;
29730;SDS011;16639;51.488;0.152;2023-02-28T04:19:00;13.80;;;4.88;;
29730;SDS011;16639;51.488;0.152;2023-02-28T04:21:32;25.38;;;6.72;;
29730;SDS011;16639;51.488;0.152;2023-02-28T04:24:06;10.73;;;5.32;;
29730;SDS011;16639;51.488;0.152;2023-02-28T04:26:36;12.60;;;5.13;;
29730;SDS011;16639;51.488;0.152;2023-02-28T04:29:04;15.93;;;4.97;;
29730;SDS011;16639;51.488;0.152;2023-02-28T04:31:32;23.25;;;5.18;;
29730;SDS011;16639;51.488;0.152;2023-02-28T04:34:00;21.75;;;5.90;;
29730;SDS011;16639;51.488;0.152;2023-02-28T04:36:28;11.40;;;4.57;;
29730;SDS011;16639;51.488;0.152;2023-02-28T04:38:55;7.45;;;4.88;;
29730;SDS011;16639;51.488;0.152;2023-02-28T04:41:23;18.73;;;5.82;;
29730;SDS011;16639;51.488;0.152;2023-02-28T04:43:51;9.65;;;4.57;;
29730;SDS011;16639;51.488;0.152;2023-02-28T04:46:19;9.20;;;4.72;;
29730;SDS011;16639;51.488;0.152;2023-02-28T04:48:47;20.10;;;6.35;;
29730;SDS011;16639;51.488;0.152;2023-02-28T04:51:15;21.45;;;5.25;;
29730;SDS011;16639;51.488;0.152;2023-02-28T04:53:44;19.80;;;5.72;;
29730;SDS011;16639;51.488;0.152;2023-02-28T04:56:13;14.88;;;5.10;;
29730;SDS011;16639;51.488;0.152;2023-02-28T04:58:41;13.88;;;6.28;;
29730;SDS011;16639;51.488;0.152;2023-02-28T05:03:43;13.93;;;5.85;;
29730;SDS011;16639;51.488;0.152;2023-02-28T05:06:11;18.67;;;6.18;;
29730;SDS011;16639;51.488;0.152;2023-02-28T05:08:39;12.10;;;5.22;;
29730;SDS011;16639;51.488;0.152;2023-02-28T05:11:14;12.55;;;6.35;;
29730;SDS011;16639;51.488;0.152;2023-02-28T05:13:44;14.95;;;5.20;;
29730;SDS011;16639;51.488;0.152;2023-02-28T05:16:12;11.02;;;5.53;;
29730;SDS011;16639;51.488;0.152;2023-02-28T05:18:40;13.52;;;6.63;;
29730;SDS011;16639;51.488;0.152;2023-02-28T05:24:00;10.10;;;5.55;;
29730;SDS011;16639;51.488;0.152;2023-02-28T05:26:29;12.90;;;5.80;;
29730;SDS011;16639;51.488;0.152;2023-02-28T05:28:56;19.40;;;7.43;;
29730;SDS011;16639;51.488;0.152;2023-02-28T05:31:24;12.32;;;6.03;;
29730;SDS011;16639;51.488;0.152;2023-02-28T05:33:51;15.68;;;6.68;;
29730;SDS011;16639;51.488;0.152;2023-02-28T05:36:19;13.55;;;7.05;;
29730;SDS011;16639;51.488;0.152;2023-02-28T05:38:47;17.15;;;8.05;;
29730;SDS011;16639;51.488;0.152;2023-02-28T05:41:15;22.52;;;9.02;;
29730;SDS011;16639;51.488;0.152;2023-02-28T05:43:43;18.27;;;9.57;;
29730;SDS011;16639;51.488;0.152;2023-02-28T05:46:12;26.65;;;9.35;;
29730;SDS011;16639;51.488;0.152;2023-02-28T05:48:40;17.45;;;7.53;;
29730;SDS011;16639;51.488;0.152;2023-02-28T05:51:08;19.30;;;7.50;;
29730;SDS011;16639;51.488;0.152;2023-02-28T05:53:36;11.82;;;6.75;;
29730;SDS011;16639;51.488;0.152;2023-02-28T05:56:03;19.85;;;8.73;;
29730;SDS011;16639;51.488;0.152;2023-02-28T05:58:31;20.70;;;9.82;;
29730;SDS011;16639;51.488;0.152;2023-02-28T06:00:59;13.98;;;7.93;;
29730;SDS011;16639;51.488;0.152;2023-02-28T06:03:45;20.17;;;9.02;;
29730;SDS011;16639;51.488;0.152;2023-02-28T06:06:12;16.13;;;9.90;;
29730;SDS011;16639;51.488;0.152;2023-02-28T06:08:39;22.52;;;10.05;;
29730;SDS011;16639;51.488;0.152;2023-02-28T06:11:07;19.77;;;7.28;;
29730;SDS011;16639;51.488;0.152;2023-02-28T06:13:34;18.33;;;7.85;;
29730;SDS011;16639;51.488;0.152;2023-02-28T06:16:01;23.42;;;9.32;;
29730;SDS011;16639;51.488;0.152;2023-02-28T06:18:29;17.98;;;10.07;;
29730;SDS011;16639;51.488;0.152;2023-02-28T06:20:56;14.82;;;8.80;;
29730;SDS011;16639;51.488;0.152;2023-02-28T06:23:23;13.75;;;8.20;;
29730;SDS011;16639;51.488;0.152;2023-02-28T06:25:51;22.80;;;7.88;;
29730;SDS011;16639;51.488;0.152;2023-02-28T06:28:19;16.45;;;7.20;;
29730;SDS011;16639;51.488;0.152;2023-02-28T06:30:47;13.30;;;8.25;;
29730;SDS011;16639;51.488;0.152;2023-02-28T06:33:14;15.57;;;8.38;;
29730;SDS011;16639;51.488;0.152;2023-02-28T06:35:46;17.55;;;8.52;;
29730;SDS011;16639;51.488;0.152;2023-02-28T06:38:14;16.45;;;8.95;;
29730;SDS011;16639;51.488;0.152;2023-02-28T06:40:41;24.50;;;9.70;;
29730;SDS011;16639;51.488;0.152;2023-02-28T06:43:09;22.35;;;9.95;;
29730;SDS011;16639;51.488;0.152;2023-02-28T06:45:43;20.15;;;11.27;;
29730;SDS011;16639;51.488;0.152;2023-02-28T06:48:10;20.33;;;9.73;;
29730;SDS011;16639;51.488;0.152;2023-02-28T06:50:38;15.35;;;9.43;;
29730;SDS011;16639;51.488;0.152;2023-02-28T06:53:05;18.90;;;9.32;;
29730;SDS011;16639;51.488;0.152;2023-02-28T06:55:32;17.73;;;9.15;;
29730;SDS011;16639;51.488;0.152;2023-02-28T06:58:00;21.63;;;8.98;;
29730;SDS011;16639;51.488;0.152;2023-02-28T07:00:27;15.65;;;8.45;;
29730;SDS011;16639;51.488;0.152;2023-02-28T07:02:55;15.48;;;9.07;;
29730;SDS011;16639;51.488;0.152;2023-02-28T07:05:22;14.52;;;9.13;;
29730;SDS011;16639;51.488;0.152;2023-02-28T07:07:49;16.70;;;8.73;;
29730;SDS011;16639;51.488;0.152;2023-02-28T07:10:18;12.60;;;8.50;;
29730;SDS011;16639;51.488;0.152;2023-02-28T07:12:46;18.95;;;7.70;;
29730;SDS011;16639;51.488;0.152;2023-02-28T07:15:13;15.15;;;8.30;;
29730;SDS011;16639;51.488;0.152;2023-02-28T07:17:41;45.80;;;17.25;;
29730;SDS011;16639;51.488;0.152;2023-02-28T07:20:09;14.88;;;8.00;;
29730;SDS011;16639;51.488;0.152;2023-02-28T07:22:37;12.50;;;7.55;;
29730;SDS011;16639;51.488;0.152;2023-02-28T07:25:05;14.23;;;8.52;;
29730;SDS011;16639;51.488;0.152;2023-02-28T07:27:33;17.77;;;8.90;;
29730;SDS011;16639;51.488;0.152;2023-02-28T07:30:00;17.25;;;9.45;;
29730;SDS011;16639;51.488;0.152;2023-02-28T07:32:30;12.82;;;7.47;;
29730;SDS011;16639;51.488;0.152;2023-02-28T07:34:57;13.30;;;6.57;;
29730;SDS011;16639;51.488;0.152;2023-02-28T07:37:24;9.88;;;5.22;;
29730;SDS011;16639;51.488;0.152;2023-02-28T07:39:52;65.95;;;11.48;;
29730;SDS011;16639;51.488;0.152;2023-02-28T07:42:19;30.30;;;10.50;;
29730;SDS011;16639;51.488;0.152;2023-02-28T07:44:47;13.05;;;7.90;;
29730;SDS011;16639;51.488;0.152;2023-02-28T07:47:15;12.75;;;7.93;;
29730;SDS011;16639;51.488;0.152;2023-02-28T07:49:42;12.00;;;6.88;;
29730;SDS011;16639;51.488;0.152;2023-02-28T07:52:09;15.32;;;7.55;;
29730;SDS011;16639;51.488;0.152;2023-02-28T07:54:38;12.88;;;6.82;;
29730;SDS011;16639;51.488;0.152;2023-02-28T07:57:05;11.77;;;7.30;;
29730;SDS011;16639;51.488;0.152;2023-02-28T07:59:32;14.82;;;9.27;;
29730;SDS011;16639;51.488;0.152;2023-02-28T08:01:59;18.65;;;8.48;;
29730;SDS011;16639;51.488;0.152;2023-02-28T08:04:27;12.93;;;7.60;;
29730;SDS011;16639;51.488;0.152;2023-02-28T08:06:55;11.23;;;6.72;;
29730;SDS011;16639;51.488;0.152;2023-02-28T08:09:23;11.32;;;6.75;;
29730;SDS011;16639;51.488;0.152;2023-02-28T08:11:50;9.70;;;6.57;;
29730;SDS011;16639;51.488;0.152;2023-02-28T08:14:17;14.50;;;6.68;;
29730;SDS011;16639;51.488;0.152;2023-02-28T08:16:44;11.00;;;6.38;;
29730;SDS011;16639;51.488;0.152;2023-02-28T08:19:12;12.32;;;7.70;;
29730;SDS011;16639;51.488;0.152;2023-02-28T08:21:39;14.68;;;8.73;;
29730;SDS011;16639;51.488;0.152;2023-02-28T08:24:06;18.60;;;7.88;;
29730;SDS011;16639;51.488;0.152;2023-02-28T08:26:34;12.65;;;6.97;;
29730;SDS011;16639;51.488;0.152;2023-02-28T08:29:01;14.07;;;6.50;;
29730;SDS011;16639;51.488;0.152;2023-02-28T08:31:28;12.88;;;6.20;;
29730;SDS011;16639;51.488;0.152;2023-02-28T08:33:56;13.75;;;5.22;;
29730;SDS011;16639;51.488;0.152;2023-02-28T08:36:25;21.13;;;5.60;;
29730;SDS011;16639;51.488;0.152;2023-02-28T08:38:56;15.27;;;5.72;;
29730;SDS011;16639;51.488;0.152;2023-02-28T08:41:24;14.70;;;4.95;;
29730;SDS011;16639;51.488;0.152;2023-02-28T08:43:53;12.05;;;6.63;;
29730;SDS011;16639;51.488;0.152;2023-02-28T08:46:20;12.00;;;9.35;;
29730;SDS011;16639;51.488;0.152;2023-02-28T08:48:51;12.18;;;6.68;;
29730;SDS011;16639;51.488;0.152;2023-02-28T08:51:20;9.93;;;5.35;;
29730;SDS011;16639;51.488;0.152;2023-02-28T08:53:53;6.70;;;5.03;;
29730;SDS011;16639;51.488;0.152;2023-02-28T08:56:22;7.90;;;5.82;;
29730;SDS011;16639;51.488;0.152;2023-02-28T08:58:50;6.05;;;4.68;;
29730;SDS011;16639;51.488;0.152;2023-02-28T09:01:21;6.28;;;4.97;;
29730;SDS011;16639;51.488;0.152;2023-02-28T09:03:50;6.80;;;4.43;;
29730;SDS011;16639;51.488;0.152;2023-02-28T09:06:19;18.23;;;5.38;;
29730;SDS011;16639;51.488;0.152;2023-02-28T09:08:48;10.90;;;5.05;;
29730;SDS011;16639;51.488;0.152;2023-02-28T09:11:16;10.60;;;6.00;;
29730;SDS011;16639;51.488;0.152;2023-02-28T09:13:45;9.35;;;5.40;;
29730;SDS011;16639;51.488;0.152;2023-02-28T09:16:13;13.70;;;4.60;;
29730;SDS011;16639;51.488;0.152;2023-02-28T09:18:43;12.80;;;4.30;;
29730;SDS011;16639;51.488;0.152;2023-02-28T09:21:12;5.95;;;3.58;;
29730;SDS011;16639;51.488;0.152;2023-02-28T09:23:41;6.75;;;3.65;;
29730;SDS011;16639;51.488;0.152;2023-02-28T09:26:15;6.35;;;2.97;;
29730;SDS011;16639;51.488;0.152;2023-02-28T09:28:49;4.50;;;3.20;;
29730;SDS011;16639;51.488;0.152;2023-02-28T09:31:19;8.55;;;2.85;;
29730;SDS011;16639;51.488;0.152;2023-02-28T09:33:49;5.05;;;3.00;;
29730;SDS011;16639;51.488;0.152;2023-02-28T09:36:19;5.43;;;3.30;;
29730;SDS011;16639;51.488;0.152;2023-02-28T09:38:49;5.30;;;3.15;;
29730;SDS011;16639;51.488;0.152;2023-02-28T09:41:19;8.45;;;3.15;;
29730;SDS011;16639;51.488;0.152;2023-02-28T09:43:50;9.10;;;3.88;;
29730;SDS011;16639;51.488;0.152;2023-02-28T09:46:40;11.88;;;6.10;;
29730;SDS011;16639;51.488;0.152;2023-02-28T09:49:12;13.15;;;5.63;;
29730;SDS011;16639;51.488;0.152;2023-02-28T09:54:22;14.30;;;5.07;;
29730;SDS011;16639;51.488;0.152;2023-02-28T09:56:55;14.00;;;5.70;;
29730;SDS011;16639;51.488;0.152;2023-02-28T09:59:39;11.75;;;6.53;;
29730;SDS011;16639;51.488;0.152;2023-02-28T10:05:39;9.23;;;6.60;;
29730;SDS011;16639;51.488;0.152;2023-02-28T10:08:16;8.32;;;6.20;;
29730;SDS011;16639;51.488;0.152;2023-02-28T10:10:53;7.90;;;5.20;;
29730;SDS011;16639;51.488;0.152;2023-02-28T10:13:37;6.85;;;4.95;;
29730;SDS011;16639;51.488;0.152;2023-02-28T10:16:20;14.65;;;4.93;;
29730;SDS011;16639;51.488;0.152;2023-02-28T10:19:03;5.03;;;4.53;;
29730;SDS011;16639;51.488;0.152;2023-02-28T10:21:48;6.55;;;5.15;;
29730;SDS011;16639;51.488;0.152;2023-02-28T10:24:42;4.85;;;4.25;;
29730;SDS011;16639;51.488;0.152;2023-02-28T10:27:25;5.30;;;4.20;;
29730;SDS011;16639;51.488;0.152;2023-02-28T10:29:56;6.82;;;4.00;;
29730;SDS011;16639;51.488;0.152;2023-02-28T10:32:27;10.02;;;4.80;;
29730;SDS011;16639;51.488;0.152;2023-02-28T10:34:57;5.47;;;4.93;;
29730;SDS011;16639;51.488;0.152;2023-02-28T10:37:37;12.45;;;4.32;;
29730;SDS011;16639;51.488;0.152;2023-02-28T10:40:06;10.35;;;5.00;;
29730;SDS011;16639;51.488;0.152;2023-02-28T10:48:02;4.57;;;2.90;;
29730;SDS011;16639;51.488;0.152;2023-02-28T11:07:00;7.95;;;3.30;;
29730;SDS011;16639;51.488;0.152;2023-02-28T11:09:50;8.75;;;3.85;;
29730;SDS011;16639;51.488;0.152;2023-02-28T11:12:28;3.85;;;2.80;;
29730;SDS011;16639;51.488;0.152;2023-02-28T11:15:02;5.18;;;3.15;;
29730;SDS011;16639;51.488;0.152;2023-02-28T11:17:33;7.80;;;3.95;;
29730;SDS011;16639;51.488;0.152;2023-02-28T11:20:04;8.13;;;4.40;;
29730;SDS011;16639;51.488;0.152;2023-02-28T11:22:35;7.05;;;3.55;;
29730;SDS011;16639;51.488;0.152;2023-02-28T11:25:12;6.95;;;3.42;;
29730;SDS011;16639;51.488;0.152;2023-02-28T11:27:54;4.68;;;3.88;;
29730;SDS011;16639;51.488;0.152;2023-02-28T11:30:37;14.23;;;4.45;;
29730;SDS011;16639;51.488;0.152;2023-02-28T11:35:57;8.25;;;6.68;;
29730;SDS011;16639;51.488;0.152;2023-02-28T11:38:28;10.82;;;5.97;;
29730;SDS011;16639;51.488;0.152;2023-02-28T11:47:08;7.28;;;4.43;;
29730;SDS011;16639;51.488;0.152;2023-02-28T12:14:28;3.63;;;3.13;;
29730;SDS011;16639;51.488;0.152;2023-02-28T12:17:28;6.80;;;5.18;;
29730;SDS011;16639;51.488;0.152;2023-02-28T12:28:12;6.90;;;2.78;;
29730;SDS011;16639;51.488;0.152;2023-02-28T12:33:34;5.75;;;3.53;;
29730;SDS011;16639;51.488;0.152;2023-02-28T12:36:09;6.13;;;2.90;;
29730;SDS011;16639;51.488;0.152;2023-02-28T12:38:53;3.58;;;2.80;;
29730;SDS011;16639;51.488;0.152;2023-02-28T12:44:09;7.65;;;3.60;;
29730;SDS011;16639;51.488;0.152;2023-02-28T12:46:51;6.15;;;4.28;;
29730;SDS011;16639;51.488;0.152;2023-02-28T12:52:13;4.15;;;3.03;;
29730;SDS011;16639;51.488;0.152;2023-02-28T12:57:24;3.80;;;3.33;;
29730;SDS011;16639;51.488;0.152;2023-02-28T13:00:02;8.45;;;4.00;;
29730;SDS011;16639;51.488;0.152;2023-02-28T13:16:59;4.80;;;2.63;;
29730;SDS011;16639;51.488;0.152;2023-02-28T13:19:42;6.95;;;2.75;;
29730;SDS011;16639;51.488;0.152;2023-02-28T13:24:55;4.60;;;2.75;;
29730;SDS011;16639;51.488;0.152;2023-02-28T13:27:33;4.03;;;2.55;;
29730;SDS011;16639;51.488;0.152;2023-02-28T13:39:01;4.88;;;3.10;;
29730;SDS011;16639;51.488;0.152;2023-02-28T14:00:23;4.30;;;2.15;;
29730;SDS011;16639;51.488;0.152;2023-02-28T14:05:27;3.35;;;2.50;;
29730;SDS011;16639;51.488;0.152;2023-02-28T14:07:59;4.13;;;2.45;;
29730;SDS011;16639;51.488;0.152;2023-02-28T14:11:02;3.78;;;2.30;;
29730;SDS011;16639;51.488;0.152;2023-02-28T14:13:43;4.72;;;2.65;;
29730;SDS011;16639;51.488;0.152;2023-02-28T14:16:21;5.25;;;2.80;;
29730;SDS011;16639;51.488;0.152;2023-02-28T14:19:01;3.78;;;2.03;;
29730;SDS011;16639;51.488;0.152;2023-02-28T14:21:36;8.05;;;3.05;;
29730;SDS011;16639;51.488;0.152;2023-02-28T14:37:56;5.32;;;2.97;;
29730;SDS011;16639;51.488;0.152;2023-02-28T14:40:27;4.03;;;2.63;;
29730;SDS011;16639;51.488;0.152;2023-02-28T14:42:59;4.43;;;2.97;;
29730;SDS011;16639;51.488;0.152;2023-02-28T14:45:29;6.57;;;3.13;;
29730;SDS011;16639;51.488;0.152;2023-02-28T14:47:58;4.55;;;2.70;;
29730;SDS011;16639;51.488;0.152;2023-02-28T14:50:35;5.50;;;2.50;;
29730;SDS011;16639;51.488;0.152;2023-02-28T14:53:03;4.30;;;2.50;;
29730;SDS011;16639;51.488;0.152;2023-02-28T14:55:44;4.43;;;2.38;;
29730;SDS011;16639;51.488;0.152;2023-02-28T15:02:21;7.28;;;2.85;;
29730;SDS011;16639;51.488;0.152;2023-02-28T15:05:21;3.35;;;1.88;;
29730;SDS011;16639;51.488;0.152;2023-02-28T15:08:03;2.40;;;2.20;;
29730;SDS011;16639;51.488;0.152;2023-02-28T15:11:03;4.38;;;2.45;;
29730;SDS011;16639;51.488;0.152;2023-02-28T15:14:01;2.63;;;1.90;;
29730;SDS011;16639;51.488;0.152;2023-02-28T15:16:56;2.47;;;2.13;;
29730;SDS011;16639;51.488;0.152;2023-02-28T15:19:29;5.20;;;1.77;;
29730;SDS011;16639;51.488;0.152;2023-02-28T15:22:23;2.13;;;1.83;;
29730;SDS011;16639;51.488;0.152;2023-02-28T15:24:51;2.45;;;2.05;;
29730;SDS011;16639;51.488;0.152;2023-02-28T15:27:20;5.13;;;2.15;;
29730;SDS011;16639;51.488;0.152;2023-02-28T15:29:53;2.40;;;1.83;;
29730;SDS011;16639;51.488;0.152;2023-02-28T15:34:53;3.55;;;2.28;;
29730;SDS011;16639;51.488;0.152;2023-02-28T15:37:56;4.47;;;2.03;;
29730;SDS011;16639;51.488;0.152;2023-02-28T15:40:25;6.85;;;2.83;;
29730;SDS011;16639;51.488;0.152;2023-02-28T15:43:05;3.30;;;2.35;;
29730;SDS011;16639;51.488;0.152;2023-02-28T15:45:46;8.57;;;4.35;;
29730;SDS011;16639;51.488;0.152;2023-02-28T15:48:17;37.45;;;17.33;;
29730;SDS011;16639;51.488;0.152;2023-02-28T15:51:22;21.10;;;15.65;;
29730;SDS011;16639;51.488;0.152;2023-02-28T15:53:54;60.72;;;10.98;;
29730;SDS011;16639;51.488;0.152;2023-02-28T15:59:05;13.57;;;6.30;;
29730;SDS011;16639;51.488;0.152;2023-02-28T16:01:38;4.50;;;3.28;;
29730;SDS011;16639;51.488;0.152;2023-02-28T16:04:11;3.30;;;2.65;;
29730;SDS011;16639;51.488;0.152;2023-02-28T16:09:28;4.35;;;2.47;;
29730;SDS011;16639;51.488;0.152;2023-02-28T16:12:00;5.03;;;2.88;;
29730;SDS011;16639;51.488;0.152;2023-02-28T16:14:30;3.47;;;2.10;;
29730;SDS011;16639;51.488;0.152;2023-02-28T16:17:05;2.85;;;2.55;;
29730;SDS011;16639;51.488;0.152;2023-02-28T16:19:35;10.10;;;2.67;;
29730;SDS011;16639;51.488;0.152;2023-02-28T16:22:03;3.13;;;2.50;;
29730;SDS011;16639;51.488;0.152;2023-02-28T16:24:30;3.38;;;3.05;;
29730;SDS011;16639;51.488;0.152;2023-02-28T16:26:58;5.05;;;2.00;;
29730;SDS011;16639;51.488;0.152;2023-02-28T16:29:30;2.42;;;2.00;;
29730;SDS011;16639;51.488;0.152;2023-02-28T16:32:06;3.17;;;2.45;;
29730;SDS011;16639;51.488;0.152;2023-02-28T16:34:33;6.40;;;2.13;;
29730;SDS011;16639;51.488;0.152;2023-02-28T16:37:01;2.70;;;2.40;;
29730;SDS011;16639;51.488;0.152;2023-02-28T16:39:28;3.03;;;1.83;;
29730;SDS011;16639;51.488;0.152;2023-02-28T16:41:56;2.72;;;2.00;;
29730;SDS011;16639;51.488;0.152;2023-02-28T16:44:27;2.25;;;2.05;;
29730;SDS011;16639;51.488;0.152;2023-02-28T16:47:00;3.38;;;2.10;;
29730;SDS011;16639;51.488;0.152;2023-02-28T16:49:29;7.40;;;2.83;;
29730;SDS011;16639;51.488;0.152;2023-02-28T16:51:58;3.75;;;2.35;;
29730;SDS011;16639;51.488;0.152;2023-02-28T16:54:26;3.58;;;2.42;;
29730;SDS011;16639;51.488;0.152;2023-02-28T16:56:53;2.63;;;2.42;;
29730;SDS011;16639;51.488;0.152;2023-02-28T16:59:24;4.60;;;2.45;;
29730;SDS011;16639;51.488;0.152;2023-02-28T17:01:55;2.83;;;1.98;;
29730;SDS011;16639;51.488;0.152;2023-02-28T17:04:25;3.03;;;2.45;;
29730;SDS011;16639;51.488;0.152;2023-02-28T17:06:53;2.17;;;1.88;;
29730;SDS011;16639;51.488;0.152;2023-02-28T17:09:21;2.17;;;1.98;;
29730;SDS011;16639;51.488;0.152;2023-02-28T17:12:06;4.07;;;2.53;;
29730;SDS011;16639;51.488;0.152;2023-02-28T17:14:33;2.67;;;1.70;;
29730;SDS011;16639;51.488;0.152;2023-02-28T17:17:01;3.35;;;2.10;;
29730;SDS011;16639;51.488;0.152;2023-02-28T17:19:28;2.45;;;2.00;;
29730;SDS011;16639;51.488;0.152;2023-02-28T17:21:55;6.70;;;2.15;;
29730;SDS011;16639;51.488;0.152;2023-02-28T17:24:30;1.67;;;1.48;;
29730;SDS011;16639;51.488;0.152;2023-02-28T17:27:13;3.33;;;2.05;;
29730;SDS011;16639;51.488;0.152;2023-02-28T17:29:48;2.08;;;1.52;;
29730;SDS011;16639;51.488;0.152;2023-02-28T17:33:42;2.05;;;1.58;;
29730;SDS011;16639;51.488;0.152;2023-02-28T17:43:17;4.95;;;2.13;;
29730;SDS011;16639;51.488;0.152;2023-02-28T17:46:25;2.72;;;2.30;;
29730;SDS011;16639;51.488;0.152;2023-02-28T17:48:53;4.80;;;2.08;;
29730;SDS011;16639;51.488;0.152;2023-02-28T17:51:22;3.67;;;1.73;;
29730;SDS011;16639;51.488;0.152;2023-02-28T17:54:05;3.75;;;1.80;;
29730;SDS011;16639;51.488;0.152;2023-02-28T17:56:50;4.35;;;2.13;;
29730;SDS011;16639;51.488;0.152;2023-02-28T17:59:30;2.38;;;1.98;;
29730;SDS011;16639;51.488;0.152;2023-02-28T18:02:14;3.22;;;2.15;;
29730;SDS011;16639;51.488;0.152;2023-02-28T18:05:06;7.13;;;3.92;;
29730;SDS011;16639;51.488;0.152;2023-02-28T18:07:46;4.38;;;3.97;;
29730;SDS011;16639;51.488;0.152;2023-02-28T18:10:21;3.47;;;3.17;;
29730;SDS011;16639;51.488;0.152;2023-02-28T18:13:14;3.17;;;2.35;;
29730;SDS011;16639;51.488;0.152;2023-02-28T18:15:52;8.20;;;2.13;;
29730;SDS011;16639;51.488;0.152;2023-02-28T18:18:46;3.65;;;2.22;;
29730;SDS011;16639;51.488;0.152;2023-02-28T18:21:28;2.38;;;1.85;;
29730;SDS011;16639;51.488;0.152;2023-02-28T18:23:59;4.70;;;2.40;;
29730;SDS011;16639;51.488;0.152;2023-02-28T18:26:34;2.72;;;2.33;;
29730;SDS011;16639;51.488;0.152;2023-02-28T18:29:06;4.18;;;2.53;;
29730;SDS011;16639;51.488;0.152;2023-02-28T18:32:11;5.55;;;2.15;;
29730;SDS011;16639;51.488;0.152;2023-02-28T18:35:04;6.95;;;2.05;;
29730;SDS011;16639;51.488;0.152;2023-02-28T18:38:23;4.05;;;2.15;;